createdAt,value
2023-03-29T00:02:11.583Z,3.00
2023-03-29T00:04:39.047Z,3.13
2023-03-29T00:07:05.976Z,3.58
2023-03-29T00:09:33.515Z,3.13
2023-03-29T00:12:01.808Z,3.35
2023-03-29T00:14:30.826Z,3.33
2023-03-29T00:16:58.505Z,3.20
2023-03-29T00:19:25.614Z,3.08
2023-03-29T00:21:52.302Z,3.30
2023-03-29T00:24:21.237Z,3.20
2023-03-29T00:26:48.491Z,3.47
2023-03-29T00:29:15.165Z,2.80
2023-03-29T00:31:41.817Z,2.88
2023-03-29T00:34:08.499Z,3.20
2023-03-29T00:36:35.111Z,3.22
2023-03-29T00:39:02.231Z,2.95
2023-03-29T00:41:28.947Z,2.70
2023-03-29T00:44:01.002Z,3.47
2023-03-29T00:46:30.464Z,2.80
2023-03-29T00:49:09.464Z,3.20
2023-03-29T00:51:40.420Z,3.20
2023-03-29T00:54:14.735Z,3.15
2023-03-29T00:56:45.051Z,2.90
2023-03-29T00:59:25.390Z,3.30
2023-03-29T01:01:57.255Z,3.42
2023-03-29T01:04:31.084Z,3.05
2023-03-29T01:07:07.450Z,3.17
2023-03-29T01:09:38.121Z,3.10
2023-03-29T01:12:17.289Z,3.38
2023-03-29T01:14:54.214Z,3.28
2023-03-29T01:17:25.626Z,3.10
2023-03-29T01:19:59.038Z,3.30
2023-03-29T01:22:45.831Z,3.75
2023-03-29T01:25:44.699Z,3.35
2023-03-29T01:28:22.164Z,3.50
2023-03-29T01:30:55.342Z,3.63
2023-03-29T01:33:27.891Z,3.30
2023-03-29T01:36:12.987Z,3.38
2023-03-29T01:39:12.080Z,3.53
2023-03-29T01:41:39.757Z,3.33
2023-03-29T01:44:12.189Z,3.75
2023-03-29T01:46:46.158Z,4.05
2023-03-29T01:49:25.605Z,3.90
2023-03-29T01:51:58.959Z,3.67
2023-03-29T01:54:27.763Z,4.10
2023-03-29T01:56:57.150Z,3.90
2023-03-29T01:59:29.101Z,4.20
2023-03-29T02:02:00.465Z,3.85
2023-03-29T02:04:34.712Z,4.20
2023-03-29T02:07:05.166Z,3.50
2023-03-29T02:09:33.796Z,4.53
2023-03-29T02:12:02.225Z,4.28
2023-03-29T02:14:30.398Z,3.95
2023-03-29T02:16:57.072Z,4.20
2023-03-29T02:19:25.951Z,3.80
2023-03-29T02:22:05.120Z,4.57
2023-03-29T02:24:34.485Z,3.90
2023-03-29T02:27:01.446Z,4.03
2023-03-29T02:29:28.123Z,4.60
2023-03-29T02:32:17.154Z,4.03
2023-03-29T02:34:50.257Z,4.45
2023-03-29T02:37:20.726Z,4.38
2023-03-29T02:42:20.349Z,4.22
2023-03-29T02:44:52.008Z,4.40
2023-03-29T02:47:23.015Z,4.60
2023-03-29T02:49:49.909Z,4.70
2023-03-29T02:52:22.648Z,4.13
2023-03-29T02:54:53.058Z,4.05
2023-03-29T02:57:26.667Z,4.43
2023-03-29T02:59:55.477Z,4.25
2023-03-29T03:02:22.924Z,4.00
2023-03-29T03:04:50.212Z,4.03
2023-03-29T03:07:16.918Z,4.47
2023-03-29T03:09:43.567Z,4.18
2023-03-29T03:12:10.265Z,4.65
2023-03-29T03:14:36.892Z,4.85
2023-03-29T03:17:04.931Z,4.78
2023-03-29T03:19:31.755Z,5.05
2023-03-29T03:21:59.653Z,4.70
2023-03-29T03:24:28.055Z,4.40
2023-03-29T03:26:54.791Z,4.75
2023-03-29T03:29:21.628Z,4.43
2023-03-29T03:31:49.880Z,4.90
2023-03-29T03:34:19.405Z,5.40
2023-03-29T03:36:47.264Z,5.10
2023-03-29T03:39:14.251Z,4.63
2023-03-29T03:41:41.311Z,5.22
2023-03-29T03:44:08.009Z,5.40
2023-03-29T03:46:34.611Z,5.00
2023-03-29T03:49:01.303Z,5.45
2023-03-29T03:51:27.925Z,5.15
2023-03-29T03:53:54.531Z,5.35
2023-03-29T03:56:21.278Z,5.18
2023-03-29T03:58:47.966Z,6.10
2023-03-29T04:01:14.553Z,5.57
2023-03-29T04:03:41.460Z,5.30
2023-03-29T04:06:09.797Z,5.35
2023-03-29T04:08:36.746Z,5.50
2023-03-29T04:11:04.631Z,5.70
2023-03-29T04:13:31.591Z,5.93
2023-03-29T04:16:00.906Z,5.60
2023-03-29T04:18:28.444Z,5.53
2023-03-29T04:20:55.276Z,6.65
2023-03-29T04:23:22.004Z,5.47
2023-03-29T04:25:48.588Z,5.50
2023-03-29T04:28:15.510Z,5.68
2023-03-29T04:30:42.155Z,6.43
2023-03-29T04:33:09.187Z,5.47
2023-03-29T04:35:35.936Z,6.30
2023-03-29T04:38:04.371Z,6.78
2023-03-29T04:40:31.287Z,6.13
2023-03-29T04:42:58.216Z,6.07
2023-03-29T04:45:25.303Z,6.65
2023-03-29T04:47:54.056Z,6.43
2023-03-29T04:50:20.851Z,6.50
2023-03-29T04:52:47.603Z,6.60
2023-03-29T04:55:14.256Z,6.30
2023-03-29T04:57:41.314Z,6.65
2023-03-29T05:00:14.354Z,6.45
2023-03-29T05:02:43.071Z,6.72
2023-03-29T05:05:10.578Z,6.43
2023-03-29T05:07:37.871Z,6.40
2023-03-29T05:10:05.395Z,6.25
2023-03-29T05:12:32.676Z,6.53
2023-03-29T05:14:59.245Z,6.13
2023-03-29T05:17:27.718Z,6.03
2023-03-29T05:19:54.804Z,6.55
2023-03-29T05:22:21.806Z,6.15
2023-03-29T05:24:48.850Z,6.50
2023-03-29T05:27:15.545Z,5.82
2023-03-29T05:29:42.579Z,5.85
2023-03-29T05:32:10.041Z,7.10
2023-03-29T05:34:37.170Z,6.57
2023-03-29T05:37:03.752Z,6.47
2023-03-29T05:39:31.671Z,7.15
2023-03-29T05:41:58.303Z,6.45
2023-03-29T05:44:24.923Z,6.45
2023-03-29T05:46:51.675Z,7.05
2023-03-29T05:49:18.521Z,6.95
2023-03-29T05:51:45.805Z,7.28
2023-03-29T05:54:12.701Z,7.13
2023-03-29T05:56:39.435Z,7.35
2023-03-29T05:59:08.422Z,7.20
2023-03-29T06:01:35.232Z,7.30
2023-03-29T06:04:02.121Z,7.63
2023-03-29T06:06:29.550Z,7.03
2023-03-29T06:08:56.719Z,7.15
2023-03-29T06:11:24.412Z,7.32
2023-03-29T06:13:51.797Z,7.53
2023-03-29T06:16:18.855Z,7.15
2023-03-29T06:18:45.570Z,7.05
2023-03-29T06:21:12.731Z,7.13
2023-03-29T06:23:39.629Z,8.38
2023-03-29T06:26:06.564Z,8.07
2023-03-29T06:28:33.324Z,7.20
2023-03-29T06:31:02.837Z,7.38
2023-03-29T06:33:32.451Z,7.45
2023-03-29T06:35:59.136Z,8.10
2023-03-29T06:38:28.502Z,7.50
2023-03-29T06:41:06.764Z,7.82
2023-03-29T06:43:34.827Z,7.47
2023-03-29T06:46:02.685Z,7.28
2023-03-29T06:48:29.573Z,7.80
2023-03-29T06:50:56.410Z,7.57
2023-03-29T06:53:23.283Z,7.70
2023-03-29T06:55:51.988Z,7.70
2023-03-29T06:58:18.661Z,7.47
2023-03-29T07:00:45.899Z,7.70
2023-03-29T07:03:20.048Z,8.43
2023-03-29T07:05:47.820Z,8.02
2023-03-29T07:08:16.571Z,8.27
2023-03-29T07:10:47.463Z,8.20
2023-03-29T07:13:15.718Z,7.60
2023-03-29T07:15:43.745Z,7.82
2023-03-29T07:18:12.667Z,7.43
2023-03-29T07:20:40.530Z,8.18
2023-03-29T07:23:09.155Z,7.32
2023-03-29T07:25:37.663Z,8.52
2023-03-29T07:28:04.933Z,7.50
2023-03-29T07:30:32.684Z,7.65
2023-03-29T07:32:59.702Z,8.57
2023-03-29T07:35:27.049Z,7.63
2023-03-29T07:37:55.872Z,7.20
2023-03-29T07:40:24.567Z,7.55
2023-03-29T07:42:54.269Z,7.93
2023-03-29T07:45:26.100Z,8.18
2023-03-29T07:47:59.346Z,7.15
2023-03-29T07:50:32.638Z,7.80
2023-03-29T07:53:00.994Z,6.65
2023-03-29T07:55:27.678Z,7.30
2023-03-29T07:57:54.947Z,7.80
2023-03-29T08:00:22.742Z,7.57
2023-03-29T08:02:52.331Z,7.18
2023-03-29T08:05:29.049Z,7.80
2023-03-29T08:08:01.078Z,6.68
2023-03-29T08:10:28.507Z,7.40
2023-03-29T08:12:55.297Z,6.93
2023-03-29T08:15:22.038Z,6.68
2023-03-29T08:17:48.786Z,6.50
2023-03-29T08:20:16.389Z,6.70
2023-03-29T08:22:43.588Z,7.20
2023-03-29T08:25:12.038Z,6.05
2023-03-29T08:27:39.669Z,6.53
2023-03-29T08:30:08.110Z,6.32
2023-03-29T08:32:35.527Z,6.50
2023-03-29T08:35:04.431Z,7.20
2023-03-29T08:37:31.885Z,6.38
2023-03-29T08:39:58.689Z,6.47
2023-03-29T08:42:31.301Z,6.30
2023-03-29T08:45:18.544Z,6.80
2023-03-29T08:47:54.028Z,6.93
2023-03-29T08:50:26.432Z,6.68
2023-03-29T08:52:59.182Z,7.53
2023-03-29T08:55:33.760Z,5.97
2023-03-29T08:58:02.936Z,5.97
2023-03-29T09:00:39.718Z,6.82
2023-03-29T09:03:19.400Z,5.70
2023-03-29T09:05:49.268Z,6.18
2023-03-29T09:08:17.696Z,5.93
2023-03-29T09:11:12.798Z,6.65
2023-03-29T09:14:04.739Z,6.55
2023-03-29T09:16:40.793Z,6.05
2023-03-29T09:19:25.498Z,6.15
2023-03-29T09:22:10.318Z,6.15
2023-03-29T09:24:55.135Z,6.75
2023-03-29T09:27:31.092Z,6.70
2023-03-29T09:30:07.233Z,6.32
2023-03-29T09:32:38.092Z,6.25
2023-03-29T09:35:18.577Z,6.38
2023-03-29T09:37:47.792Z,5.93
2023-03-29T09:40:21.961Z,6.65
2023-03-29T09:42:51.187Z,6.63
2023-03-29T09:45:17.972Z,6.57
2023-03-29T09:47:51.789Z,6.93
2023-03-29T09:50:31.573Z,6.53
2023-03-29T09:52:59.129Z,6.38
2023-03-29T09:55:29.900Z,6.97
2023-03-29T09:58:12.442Z,8.13
2023-03-29T10:00:40.279Z,6.72
2023-03-29T10:03:09.257Z,7.25
2023-03-29T10:05:37.972Z,7.25
2023-03-29T10:08:19.651Z,6.93
2023-03-29T10:10:47.316Z,7.18
2023-03-29T10:13:23.376Z,7.60
2023-03-29T10:16:17.152Z,6.88
2023-03-29T10:18:44.066Z,7.47
2023-03-29T10:21:15.849Z,7.28
2023-03-29T10:23:43.876Z,7.43
2023-03-29T10:26:20.280Z,7.60
2023-03-29T10:28:47.140Z,7.30
2023-03-29T10:31:20.058Z,7.47
2023-03-29T10:33:56.035Z,7.63
2023-03-29T10:36:26.269Z,7.95
2023-03-29T10:38:56.786Z,8.45
2023-03-29T10:43:51.720Z,8.77
2023-03-29T10:46:42.333Z,7.80
2023-03-29T10:51:46.432Z,8.45
2023-03-29T10:54:23.116Z,8.20
2023-03-29T10:56:57.102Z,8.15
2023-03-29T10:59:38.411Z,7.88
2023-03-29T11:02:14.269Z,8.13
2023-03-29T11:04:52.644Z,8.23
2023-03-29T11:07:31.695Z,8.77
2023-03-29T11:10:13.335Z,9.02
2023-03-29T11:13:05.848Z,8.50
2023-03-29T11:15:41.625Z,9.07
2023-03-29T11:18:27.902Z,9.35
2023-03-29T11:21:00.544Z,9.45
2023-03-29T11:23:36.102Z,9.20
2023-03-29T11:26:17.331Z,8.52
2023-03-29T11:28:53.854Z,8.32
2023-03-29T11:31:37.209Z,8.35
2023-03-29T11:34:17.836Z,9.10
2023-03-29T11:37:07.745Z,8.70
2023-03-29T11:40:01.008Z,8.07
2023-03-29T11:42:32.237Z,7.93
2023-03-29T11:45:02.370Z,8.25
2023-03-29T11:47:33.390Z,7.97
2023-03-29T11:50:06.451Z,8.25
2023-03-29T11:52:38.388Z,7.97
2023-03-29T11:55:20.328Z,7.72
2023-03-29T11:58:19.098Z,8.20
2023-03-29T12:00:55.789Z,7.60
2023-03-29T12:03:41.388Z,7.50
2023-03-29T12:06:23.962Z,8.00
2023-03-29T12:08:54.261Z,7.32
2023-03-29T12:11:40.771Z,7.47
2023-03-29T12:14:17.887Z,7.28
2023-03-29T12:16:57.117Z,7.65
2023-03-29T12:19:44.597Z,7.15
2023-03-29T12:22:11.516Z,7.15
2023-03-29T12:24:43.402Z,6.78
2023-03-29T12:27:30.876Z,7.22
2023-03-29T12:30:16.465Z,6.68
2023-03-29T12:32:56.270Z,7.00
2023-03-29T12:35:35.023Z,6.40
2023-03-29T12:38:23.194Z,6.70
2023-03-29T12:40:59.626Z,8.45
2023-03-29T12:43:28.508Z,6.45
2023-03-29T12:46:26.447Z,7.00
2023-03-29T12:48:57.378Z,7.10
2023-03-29T12:51:32.594Z,7.28
2023-03-29T12:54:18.026Z,6.45
2023-03-29T12:57:00.281Z,5.80
2023-03-29T12:59:34.756Z,5.72
2023-03-29T13:02:19.595Z,6.82
2023-03-29T13:04:57.920Z,6.13
2023-03-29T13:07:27.495Z,6.22
2023-03-29T13:09:55.092Z,6.43
2023-03-29T13:12:31.448Z,6.53
2023-03-29T13:15:02.805Z,6.20
2023-03-29T13:17:36.183Z,6.00
2023-03-29T13:20:05.783Z,6.45
2023-03-29T13:23:08.123Z,5.90
2023-03-29T13:25:46.870Z,6.13
2023-03-29T13:28:37.721Z,6.72
2023-03-29T13:31:16.780Z,6.13
2023-03-29T13:34:12.485Z,6.15
2023-03-29T13:37:06.900Z,5.60
2023-03-29T13:39:40.557Z,6.13
2023-03-29T13:42:17.999Z,6.32
2023-03-29T13:44:49.029Z,6.05
2023-03-29T13:47:37.080Z,5.90
2023-03-29T13:50:12.434Z,6.80
2023-03-29T13:52:50.131Z,6.15
2023-03-29T13:55:24.656Z,6.13
2023-03-29T13:58:27.404Z,6.07
2023-03-29T14:01:26.250Z,6.55
2023-03-29T14:03:55.524Z,6.10
2023-03-29T14:06:27.438Z,5.80
2023-03-29T14:08:55.226Z,5.65
2023-03-29T14:11:27.465Z,6.20
2023-03-29T14:14:00.054Z,6.40
2023-03-29T14:16:35.353Z,7.15
2023-03-29T14:19:13.543Z,6.55
2023-03-29T14:21:41.973Z,7.22
2023-03-29T14:24:12.853Z,5.50
2023-03-29T14:26:46.282Z,5.95
2023-03-29T14:29:13.161Z,5.78
2023-03-29T14:31:41.890Z,6.30
2023-03-29T14:34:28.763Z,6.68
2023-03-29T14:36:55.653Z,6.40
2023-03-29T14:39:23.435Z,6.25
2023-03-29T14:41:57.158Z,7.00
2023-03-29T14:44:34.674Z,6.00
2023-03-29T14:47:03.074Z,6.97
2023-03-29T14:49:30.301Z,6.70
2023-03-29T14:51:57.730Z,6.80
2023-03-29T14:54:27.909Z,7.05
2023-03-29T14:56:55.294Z,6.93
2023-03-29T14:59:41.265Z,7.32
2023-03-29T15:02:23.326Z,7.07
2023-03-29T15:05:00.642Z,7.13
2023-03-29T15:07:28.414Z,10.50
2023-03-29T15:09:58.640Z,10.68
2023-03-29T15:12:28.796Z,7.75
2023-03-29T15:14:55.637Z,7.85
2023-03-29T15:17:50.262Z,7.28
2023-03-29T15:20:26.130Z,7.30
2023-03-29T15:23:02.402Z,7.13
2023-03-29T15:25:37.596Z,7.68
2023-03-29T15:28:04.796Z,7.55
2023-03-29T15:30:38.790Z,8.15
2023-03-29T15:33:19.332Z,7.55
2023-03-29T15:38:15.938Z,7.25
2023-03-29T15:40:42.888Z,7.13
2023-03-29T15:43:10.823Z,7.63
2023-03-29T15:45:37.576Z,7.93
2023-03-29T15:48:20.051Z,7.97
2023-03-29T15:50:46.747Z,7.65
2023-03-29T15:53:15.815Z,7.38
2023-03-29T15:55:47.248Z,7.57
2023-03-29T15:58:19.981Z,7.25
2023-03-29T16:00:54.250Z,7.40
2023-03-29T16:03:22.447Z,7.57
2023-03-29T16:05:49.203Z,7.57
2023-03-29T16:08:16.568Z,8.32
2023-03-29T16:10:43.963Z,6.90
2023-03-29T16:13:14.069Z,7.20
2023-03-29T16:15:42.806Z,7.10
2023-03-29T16:18:09.488Z,6.95
2023-03-29T16:20:37.811Z,6.60
2023-03-29T16:23:09.790Z,6.47
2023-03-29T16:25:38.412Z,6.35
2023-03-29T16:28:05.789Z,6.63
2023-03-29T16:30:32.810Z,6.72
2023-03-29T16:32:59.490Z,6.40
2023-03-29T16:35:32.117Z,6.85
2023-03-29T16:37:59.127Z,6.70
2023-03-29T16:40:26.033Z,6.82
2023-03-29T16:42:52.750Z,6.93
2023-03-29T16:45:20.310Z,6.85
2023-03-29T16:47:47.252Z,7.25
2023-03-29T16:50:17.982Z,7.60
2023-03-29T16:52:46.161Z,7.75
2023-03-29T16:55:13.584Z,8.02
2023-03-29T16:57:40.341Z,8.25
2023-03-29T17:00:11.568Z,8.70
2023-03-29T17:02:38.317Z,8.45
2023-03-29T17:05:06.096Z,8.98
2023-03-29T17:07:33.850Z,10.02
2023-03-29T17:10:00.755Z,9.75
2023-03-29T17:12:27.454Z,8.73
2023-03-29T17:14:54.397Z,9.60
2023-03-29T17:17:21.149Z,9.70
2023-03-29T17:19:47.951Z,10.18
2023-03-29T17:22:15.146Z,10.00
2023-03-29T17:24:41.805Z,10.13
2023-03-29T17:27:08.720Z,10.52
2023-03-29T17:29:35.705Z,10.43
2023-03-29T17:32:02.367Z,10.90
2023-03-29T17:34:29.140Z,10.68
2023-03-29T17:36:56.770Z,11.15
2023-03-29T17:39:25.276Z,10.35
2023-03-29T17:41:52.116Z,10.85
2023-03-29T17:44:19.657Z,11.32
2023-03-29T17:46:46.767Z,10.70
2023-03-29T17:49:14.840Z,11.82
2023-03-29T17:51:41.796Z,11.80
2023-03-29T17:54:08.484Z,10.82
2023-03-29T17:56:35.314Z,11.48
2023-03-29T17:59:02.352Z,12.45
2023-03-29T18:01:29.434Z,12.52
2023-03-29T18:03:56.275Z,12.13
2023-03-29T18:06:23.040Z,12.57
2023-03-29T18:08:49.721Z,13.82
2023-03-29T18:11:22.374Z,13.25
2023-03-29T18:13:52.143Z,12.73
2023-03-29T18:16:20.552Z,13.00
2023-03-29T18:18:48.231Z,13.57
2023-03-29T18:21:16.688Z,14.35
2023-03-29T18:23:47.750Z,13.27
2023-03-29T18:26:16.568Z,14.27
2023-03-29T18:28:47.186Z,13.45
2023-03-29T18:33:40.967Z,13.15
2023-03-29T18:36:11.907Z,13.43
2023-03-29T18:38:40.672Z,14.60
2023-03-29T18:41:08.747Z,15.10
2023-03-29T18:43:36.183Z,13.90
2023-03-29T18:46:03.203Z,14.57
2023-03-29T18:48:30.358Z,14.88
2023-03-29T18:50:58.264Z,15.93
2023-03-29T18:53:25.217Z,14.63
2023-03-29T18:55:52.677Z,15.45
2023-03-29T18:58:23.058Z,14.30
2023-03-29T19:00:50.586Z,15.55
2023-03-29T19:03:17.926Z,14.80
2023-03-29T19:05:44.729Z,15.40
2023-03-29T19:08:11.469Z,15.07
2023-03-29T19:10:39.441Z,15.13
2023-03-29T19:13:06.373Z,14.25
2023-03-29T19:15:34.713Z,14.85
2023-03-29T19:18:01.804Z,13.98
2023-03-29T19:20:29.415Z,14.50
2023-03-29T19:22:56.470Z,13.98
2023-03-29T19:25:23.247Z,14.02
2023-03-29T19:27:50.405Z,12.95
2023-03-29T19:30:18.359Z,13.77
2023-03-29T19:32:45.032Z,13.68
2023-03-29T19:35:13.001Z,13.65
2023-03-29T19:37:40.032Z,14.15
2023-03-29T19:40:08.919Z,14.98
2023-03-29T19:42:36.199Z,14.18
2023-03-29T19:45:04.046Z,14.88
2023-03-29T19:47:31.118Z,13.55
2023-03-29T19:49:58.613Z,15.55
2023-03-29T19:52:27.859Z,14.00
2023-03-29T19:54:56.014Z,14.15
2023-03-29T19:57:23.947Z,13.55
2023-03-29T19:59:53.147Z,14.65
2023-03-29T20:02:19.948Z,14.35
2023-03-29T20:04:46.826Z,13.65
2023-03-29T20:07:13.435Z,14.38
2023-03-29T20:09:44.652Z,13.57
2023-03-29T20:12:12.095Z,14.05
2023-03-29T20:14:40.340Z,12.77
2023-03-29T20:17:08.544Z,14.00
2023-03-29T20:19:36.835Z,14.18
2023-03-29T20:22:04.580Z,13.57
2023-03-29T20:24:32.627Z,13.73
2023-03-29T20:26:59.718Z,13.15
2023-03-29T20:29:27.685Z,14.00
2023-03-29T20:31:54.506Z,14.35
2023-03-29T20:34:22.375Z,13.73
2023-03-29T20:36:49.193Z,14.07
2023-03-29T20:39:19.047Z,13.75
2023-03-29T20:41:51.700Z,14.00
2023-03-29T20:44:18.503Z,12.57
2023-03-29T20:46:54.687Z,13.10
2023-03-29T20:49:26.702Z,13.02
2023-03-29T20:51:59.455Z,13.73
2023-03-29T20:54:26.715Z,13.10
2023-03-29T20:56:54.754Z,11.95
2023-03-29T20:59:22.984Z,12.82
2023-03-29T21:01:50.307Z,12.60
2023-03-29T21:04:17.086Z,12.52
2023-03-29T21:06:45.838Z,11.98
2023-03-29T21:09:13.709Z,12.93
2023-03-29T21:11:40.367Z,13.00
2023-03-29T21:14:07.264Z,11.65
2023-03-29T21:16:33.966Z,12.27
2023-03-29T21:19:01.047Z,13.18
2023-03-29T21:21:29.668Z,13.52
2023-03-29T21:23:56.556Z,14.07
2023-03-29T21:26:23.572Z,14.18
2023-03-29T21:28:50.954Z,14.07
2023-03-29T21:31:17.808Z,15.07
2023-03-29T21:33:44.800Z,14.63
2023-03-29T21:36:11.498Z,14.18
2023-03-29T21:38:38.192Z,14.48
2023-03-29T21:41:09.854Z,13.52
2023-03-29T21:43:36.500Z,14.20
2023-03-29T21:46:03.253Z,14.32
2023-03-29T21:48:31.011Z,13.85
2023-03-29T21:50:57.806Z,13.98
2023-03-29T21:53:25.242Z,14.60
2023-03-29T21:55:52.167Z,13.90
2023-03-29T21:58:19.466Z,14.48
2023-03-29T22:00:47.420Z,14.82
2023-03-29T22:03:15.134Z,13.95
2023-03-29T22:05:42.108Z,14.07
2023-03-29T22:08:11.790Z,14.50
2023-03-29T22:10:41.297Z,14.77
2023-03-29T22:13:09.091Z,14.30
2023-03-29T22:15:38.932Z,14.15
2023-03-29T22:18:05.579Z,13.68
2023-03-29T22:20:35.643Z,14.63
2023-03-29T22:23:03.393Z,13.57
2023-03-29T22:25:30.038Z,13.80
2023-03-29T22:27:56.787Z,14.40
2023-03-29T22:30:23.528Z,13.85
2023-03-29T22:32:50.138Z,14.40
2023-03-29T22:35:16.961Z,12.65
2023-03-29T22:37:43.942Z,12.70
2023-03-29T22:40:12.092Z,11.88
2023-03-29T22:42:39.014Z,13.45
2023-03-29T22:45:06.661Z,13.38
2023-03-29T22:47:34.134Z,13.48
2023-03-29T22:50:00.881Z,12.43
2023-03-29T22:52:27.478Z,12.05
2023-03-29T22:54:54.036Z,12.27
2023-03-29T22:57:20.885Z,12.15
2023-03-29T22:59:47.521Z,11.38
2023-03-29T23:02:14.123Z,11.23
2023-03-29T23:04:42.216Z,11.02
2023-03-29T23:07:09.140Z,11.18
2023-03-29T23:09:35.777Z,11.32
2023-03-29T23:12:02.527Z,11.30
2023-03-29T23:14:29.700Z,11.70
2023-03-29T23:16:56.286Z,11.52
2023-03-29T23:19:23.063Z,11.60
2023-03-29T23:21:49.639Z,11.68
2023-03-29T23:24:19.064Z,11.43
2023-03-29T23:26:49.134Z,11.83
2023-03-29T23:29:15.771Z,11.30
2023-03-29T23:31:42.457Z,10.85
2023-03-29T23:34:09.605Z,11.05
2023-03-29T23:36:36.201Z,11.18
2023-03-29T23:39:03.049Z,11.40
2023-03-29T23:41:30.808Z,11.45
2023-03-29T23:43:57.731Z,10.48
2023-03-29T23:46:24.666Z,10.50
2023-03-29T23:48:51.429Z,10.18
2023-03-29T23:51:22.915Z,10.32
2023-03-29T23:53:50.091Z,10.18
2023-03-29T23:56:17.058Z,11.10
2023-03-29T23:58:44.477Z,10.30
